MUC | München Airways

 METAR UND TAF INFORMATION

METAR FOR LIMF
ADDS - METARS form results

(1356 UTC 24 January 2019)
Data provider http://aviationweather.gov/metar/data/
 
METAR text: LIMF 241350Z 10005KT 070V130 CAVOK 05/M01 Q1000
Conditions at: LIMF (TORINO/CASELLE , IT) observed 1350 UTC 24 January 2019
Temperature: 5.0°C (41°F)
Dewpoint: -1.0°C (30°F) [RH = 65%]
Pressure (altimeter): 29.53 inches Hg (1000.0 mb)
Winds: from the E (100 degrees) at 6 MPH (5 knots; 2.6 m/s)
Visibility: 6 or more miles (10+ km)
Ceiling: ceiling and visibility are OK
Clouds: unknown
Weather: no significant weather observed at this time

METAR text: LIMF 241320Z 05005KT 020V080 CAVOK 06/M01 Q1000
Conditions at: LIMF (TORINO/CASELLE , IT) observed 1320 UTC 24 January 2019
Temperature: 6.0°C (43°F)
Dewpoint: -1.0°C (30°F) [RH = 61%]
Pressure (altimeter): 29.53 inches Hg (1000.0 mb)
Winds: from the NE (50 degrees) at 6 MPH (5 knots; 2.6 m/s)
Visibility: 6 or more miles (10+ km)
Ceiling: ceiling and visibility are OK
Clouds: unknown
Weather: no significant weather observed at this time

Forecast for: LIMF (TORINO/CASELLE , IT)
Text: TAF LIMF 241100Z 2412/2512 VRB05KT 7000 NSC
Forecast period: 1200 UTC 24 January 2019 to 1200 UTC 25 January 2019
Forecast type: FROM: standard forecast or significant change
Winds: variable direction winds at 6 MPH (5 knots; 2.6 m/s)
Visibility: 4 miles (7 km)
Ceiling: unknown
Clouds: missing
Weather: no significant weather forecast for this period
Text: TEMPO 2502/2507 2500 BR
Forecast period: 0200 to 0700 UTC 25 January 2019
Forecast type: TEMPORARY: The following changes expected for less than half the time period
Visibility: 1.55 miles (2.49 km)
Ceiling: unknown
Clouds: missing
Weather: BR  (mist)

 FLUGHAFENKARTE

 RUNWAY INFORMATION
Runway 18 Runway length 10827 ft Runway width 197 ft
Runway elevation 981 ft Runway displaced threshold 2378 ft Runway heading 183
Runway 36 Runway length 10827 ft Runway width 197 ft
Runway elevation 933 ft Runway displaced threshold 1148 ft Runway heading 3

 AIRPORT FREQUENCIES
Type APP Name APP Frequency 129.275 MHZ
Type APP Name APP Frequency 23.44 MHZ
Type ATIS Name ATIS Frequency 120.475 MHZ
Type GND Name GND Frequency 121.7 MHZ
Type TWR Name TWR Frequency 118.5 MHZ

 AIRPORT NEAR NAVIGATION AIDS
Type TACAN Name Caselle Frequency 109500 KHZ
Type NDB Name Caselle Frequency 357 KHZ
Type VOR-DME Name Caselle Frequency 116750 KHZ
Type VOR-DME Name Torino Frequency 114500 KHZ
Type NDB Name Torino Frequency 393 KHZ